createdAt,value
2022-12-31T00:01:07.240Z,99518.13
2022-12-31T00:03:35.086Z,99528.63
2022-12-31T00:06:13.169Z,99524.53
2022-12-31T00:08:40.727Z,99519.75
2022-12-31T00:11:08.103Z,99520.84
2022-12-31T00:13:37.274Z,99531.25
2022-12-31T00:16:15.422Z,99528.53
2022-12-31T00:18:49.115Z,99528.13
2022-12-31T00:21:17.764Z,99534.06
2022-12-31T00:23:45.653Z,99538.00
2022-12-31T00:26:21.273Z,99540.88
2022-12-31T00:28:49.026Z,99541.56
2022-12-31T00:31:29.732Z,99536.63
2022-12-31T00:33:58.819Z,99533.31
2022-12-31T00:36:38.702Z,99546.47
2022-12-31T00:39:08.708Z,99557.31
2022-12-31T00:41:36.738Z,99552.66
2022-12-31T00:44:04.471Z,99560.34
2022-12-31T00:46:32.009Z,99567.16
2022-12-31T00:48:59.544Z,99572.19
2022-12-31T00:51:27.830Z,99573.72
2022-12-31T00:53:58.702Z,99569.84
2022-12-31T00:56:30.394Z,99571.38
2022-12-31T00:58:59.498Z,99571.88
2022-12-31T01:01:31.458Z,99576.41
2022-12-31T01:04:06.551Z,99582.59
2022-12-31T01:06:34.739Z,99584.53
2022-12-31T01:09:02.650Z,99584.28
2022-12-31T01:11:30.665Z,99579.75
2022-12-31T01:14:11.553Z,99585.66
2022-12-31T01:16:52.480Z,99587.72
2022-12-31T01:19:28.632Z,99596.28
2022-12-31T01:21:57.099Z,99599.94
2022-12-31T01:24:24.852Z,99600.97
2022-12-31T01:26:52.244Z,99593.06
2022-12-31T01:29:19.759Z,99588.28
2022-12-31T01:31:47.217Z,99588.69
2022-12-31T01:34:14.672Z,99589.22
2022-12-31T01:36:42.092Z,99585.81
2022-12-31T01:39:11.507Z,99588.28
2022-12-31T01:41:44.122Z,99581.53
2022-12-31T01:44:11.531Z,99571.78
2022-12-31T01:46:52.146Z,99577.66
2022-12-31T01:50:03.141Z,99570.72
2022-12-31T01:52:45.137Z,99575.63
2022-12-31T01:55:21.443Z,99577.66
2022-12-31T01:57:56.346Z,99565.19
2022-12-31T02:00:23.887Z,99569.47
2022-12-31T02:02:51.887Z,99571.78
2022-12-31T02:05:27.110Z,99577.84
2022-12-31T02:07:55.068Z,99580.75
2022-12-31T02:10:22.472Z,99579.50
2022-12-31T02:12:50.608Z,99577.31
2022-12-31T02:15:24.860Z,99574.44
2022-12-31T02:18:29.619Z,99573.22
2022-12-31T02:21:18.255Z,99577.81
2022-12-31T02:23:57.791Z,99582.19
2022-12-31T02:26:49.735Z,99578.94
2022-12-31T02:29:58.051Z,99587.72
2022-12-31T02:32:38.055Z,99583.84
2022-12-31T02:35:16.317Z,99590.03
2022-12-31T02:37:49.771Z,99590.88
2022-12-31T02:40:21.222Z,99588.13
2022-12-31T02:42:54.906Z,99598.13
2022-12-31T02:45:32.344Z,99584.69
2022-12-31T02:47:59.663Z,99592.91
2022-12-31T02:50:34.466Z,99591.53
2022-12-31T02:53:20.489Z,99600.03
2022-12-31T02:56:02.942Z,99607.72
2022-12-31T02:59:17.850Z,99614.50
2022-12-31T03:02:11.864Z,99611.59
2022-12-31T03:04:43.395Z,99622.75
2022-12-31T03:07:17.714Z,99611.81
2022-12-31T03:09:45.202Z,99615.09
2022-12-31T03:12:32.253Z,99610.31
2022-12-31T03:15:00.209Z,99609.06
2022-12-31T03:17:27.657Z,99608.81
2022-12-31T03:20:13.919Z,99609.78
2022-12-31T03:22:43.705Z,99603.47
2022-12-31T03:25:33.719Z,99611.00
2022-12-31T03:28:12.049Z,99612.47
2022-12-31T03:30:41.961Z,99610.41
2022-12-31T03:33:10.144Z,99612.44
2022-12-31T03:35:40.196Z,99607.63
2022-12-31T03:38:08.380Z,99615.91
2022-12-31T03:40:48.813Z,99614.97
2022-12-31T03:43:17.056Z,99614.69
2022-12-31T03:45:44.889Z,99621.41
2022-12-31T03:48:13.349Z,99620.84
2022-12-31T03:50:40.620Z,99624.28
2022-12-31T03:53:08.069Z,99623.75
2022-12-31T03:55:38.460Z,99626.91
2022-12-31T03:58:06.312Z,99639.19
2022-12-31T04:00:36.811Z,99635.63
2022-12-31T04:03:04.254Z,99633.31
2022-12-31T04:05:32.402Z,99637.97
2022-12-31T04:07:59.876Z,99638.94
2022-12-31T04:10:27.367Z,99638.53
2022-12-31T04:12:54.923Z,99643.03
2022-12-31T04:15:22.327Z,99641.53
2022-12-31T04:17:49.773Z,99651.50
2022-12-31T04:20:17.376Z,99646.88
2022-12-31T04:22:44.871Z,99655.50
2022-12-31T04:25:13.018Z,99652.81
2022-12-31T04:27:45.402Z,99652.13
2022-12-31T04:30:14.189Z,99668.97
2022-12-31T04:32:42.515Z,99673.38
2022-12-31T04:35:11.626Z,99665.06
2022-12-31T04:37:39.497Z,99669.25
2022-12-31T04:40:08.877Z,99665.06
2022-12-31T04:42:36.856Z,99670.38
2022-12-31T04:45:05.744Z,99666.75
2022-12-31T04:47:33.252Z,99669.50
2022-12-31T04:50:00.700Z,99669.09
2022-12-31T04:52:28.112Z,99668.53
2022-12-31T04:54:55.543Z,99662.41
2022-12-31T04:57:22.995Z,99668.88
2022-12-31T04:59:50.360Z,99668.97
2022-12-31T05:02:17.934Z,99668.34
2022-12-31T05:04:45.512Z,99665.34
2022-12-31T05:07:12.997Z,99668.50
2022-12-31T05:09:40.479Z,99676.19
2022-12-31T05:12:08.011Z,99674.50
2022-12-31T05:14:35.407Z,99680.13
2022-12-31T05:17:02.864Z,99672.63
2022-12-31T05:19:30.258Z,99673.94
2022-12-31T05:22:16.480Z,99678.28
2022-12-31T05:24:43.838Z,99669.81
2022-12-31T05:27:11.478Z,99677.00
2022-12-31T05:29:38.799Z,99675.75
2022-12-31T05:32:06.165Z,99671.09
2022-12-31T05:34:33.610Z,99677.94
2022-12-31T05:37:01.024Z,99681.47
2022-12-31T05:39:28.648Z,99693.38
2022-12-31T05:41:56.262Z,99695.97
2022-12-31T05:44:23.655Z,99695.53
2022-12-31T05:46:51.045Z,99697.16
2022-12-31T05:49:18.455Z,99697.56
2022-12-31T05:51:46.099Z,99706.13
2022-12-31T05:54:13.458Z,99708.63
2022-12-31T05:56:40.939Z,99709.44
2022-12-31T05:59:08.351Z,99710.50
2022-12-31T06:01:35.817Z,99709.03
2022-12-31T06:04:03.324Z,99710.56
2022-12-31T06:06:30.808Z,99712.13
2022-12-31T06:08:58.188Z,99713.94
2022-12-31T06:11:25.569Z,99712.84
2022-12-31T06:13:52.976Z,99715.88
2022-12-31T06:16:20.372Z,99714.78
2022-12-31T06:18:50.266Z,99712.31
2022-12-31T06:21:19.765Z,99714.47
2022-12-31T06:23:48.376Z,99718.31
2022-12-31T06:26:16.539Z,99722.47
2022-12-31T06:28:44.033Z,99726.50
2022-12-31T06:31:14.474Z,99713.16
2022-12-31T06:33:42.223Z,99703.81
2022-12-31T06:36:13.901Z,99701.47
2022-12-31T06:38:43.832Z,99699.34
2022-12-31T06:41:14.780Z,99699.97
2022-12-31T06:43:43.336Z,99705.44
2022-12-31T06:46:15.516Z,99706.09
2022-12-31T06:48:44.982Z,99695.78
2022-12-31T06:51:19.203Z,99703.06
2022-12-31T06:53:51.686Z,99703.63
2022-12-31T06:56:34.009Z,99705.75
2022-12-31T06:59:04.030Z,99689.22
2022-12-31T07:01:50.430Z,99707.78
2022-12-31T07:04:33.189Z,99711.47
2022-12-31T07:07:38.436Z,99717.81
2022-12-31T07:10:30.255Z,99714.47
2022-12-31T07:13:23.857Z,99720.31
2022-12-31T07:16:24.868Z,99723.00
2022-12-31T07:19:12.934Z,99718.66
2022-12-31T07:21:43.308Z,99728.41
2022-12-31T07:24:12.373Z,99743.28
2022-12-31T07:27:25.550Z,99745.97
2022-12-31T07:30:29.536Z,99740.13
2022-12-31T07:33:33.485Z,99745.03
2022-12-31T07:36:12.847Z,99756.84
2022-12-31T07:38:46.905Z,99764.81
2022-12-31T07:41:39.608Z,99772.97
2022-12-31T07:44:36.422Z,99773.09
2022-12-31T07:47:11.788Z,99757.59
2022-12-31T07:49:44.172Z,99752.91
2022-12-31T07:52:12.178Z,99753.75
2022-12-31T07:54:39.643Z,99766.81
2022-12-31T07:57:07.156Z,99755.28
2022-12-31T07:59:46.409Z,99764.91
2022-12-31T08:02:54.148Z,99746.44
2022-12-31T08:05:24.394Z,99758.13
2022-12-31T08:08:25.767Z,99765.31
2022-12-31T08:11:29.163Z,99764.34
2022-12-31T08:14:02.058Z,99791.78
2022-12-31T08:16:30.364Z,99780.88
2022-12-31T08:18:58.174Z,99771.84
2022-12-31T08:21:55.069Z,99758.97
2022-12-31T08:24:39.361Z,99790.16
2022-12-31T08:27:17.541Z,99801.78
2022-12-31T08:29:47.840Z,99817.72
2022-12-31T08:32:38.020Z,99819.88
2022-12-31T08:35:28.257Z,99828.25
2022-12-31T08:38:52.931Z,99824.59
2022-12-31T08:43:32.360Z,99835.03
2022-12-31T08:46:00.973Z,99812.69
2022-12-31T08:48:41.811Z,99816.59
2022-12-31T08:51:20.227Z,99823.00
2022-12-31T08:53:48.485Z,99828.72
2022-12-31T08:56:29.045Z,99831.69
2022-12-31T08:59:24.106Z,99837.38
2022-12-31T09:02:04.109Z,99840.41
2022-12-31T09:05:19.599Z,99833.19
2022-12-31T09:08:16.717Z,99840.78
2022-12-31T09:11:00.652Z,99841.69
2022-12-31T09:13:44.958Z,99839.50
2022-12-31T09:16:36.953Z,99838.25
2022-12-31T09:19:04.648Z,99848.84
2022-12-31T09:21:32.505Z,99837.22
2022-12-31T09:24:05.856Z,99844.94
2022-12-31T09:26:49.654Z,99834.81
2022-12-31T09:29:43.349Z,99836.19
2022-12-31T09:32:38.031Z,99835.00
2022-12-31T09:35:36.064Z,99835.13
2022-12-31T09:38:15.051Z,99830.66
2022-12-31T09:41:10.469Z,99833.06
2022-12-31T09:44:05.291Z,99824.88
2022-12-31T09:47:03.256Z,99835.44
2022-12-31T09:50:08.136Z,99817.72
2022-12-31T09:53:08.996Z,99830.56
2022-12-31T09:56:03.087Z,99815.13
2022-12-31T09:59:05.967Z,99812.31
2022-12-31T10:01:59.460Z,99793.97
2022-12-31T10:04:52.350Z,99779.66
2022-12-31T10:07:50.430Z,99779.84
2022-12-31T10:10:33.025Z,99799.56
2022-12-31T11:38:53.184Z,99736.00
2022-12-31T11:42:03.723Z,99739.72
2022-12-31T11:44:57.366Z,99743.13
2022-12-31T12:38:30.848Z,99739.25
2022-12-31T12:41:07.428Z,99738.03
2022-12-31T12:43:38.092Z,99739.69
2022-12-31T12:46:18.197Z,99745.25
2022-12-31T12:49:28.274Z,99747.91
2022-12-31T12:52:09.923Z,99752.94
2022-12-31T12:54:59.473Z,99754.38
2022-12-31T12:57:43.101Z,99755.75
2022-12-31T13:00:20.310Z,99755.25
2022-12-31T13:03:01.502Z,99751.81
2022-12-31T13:05:58.331Z,99752.78
2022-12-31T13:08:53.348Z,99754.44
2022-12-31T13:11:51.285Z,99755.31
2022-12-31T13:14:32.581Z,99758.97
2022-12-31T13:17:29.611Z,99773.50
2022-12-31T13:20:06.651Z,99766.75
2022-12-31T13:22:42.188Z,99759.59
2022-12-31T13:25:35.319Z,99758.50
2022-12-31T13:28:09.957Z,99764.00
2022-12-31T13:30:44.506Z,99761.91
2022-12-31T13:33:20.469Z,99766.38
2022-12-31T13:35:55.473Z,99763.69
2022-12-31T13:38:40.416Z,99764.25
2022-12-31T13:41:19.272Z,99758.28
2022-12-31T13:44:30.474Z,99779.94
2022-12-31T13:47:10.160Z,99780.34
2022-12-31T13:49:52.864Z,99777.09
2022-12-31T13:52:36.379Z,99774.00
2022-12-31T13:55:22.935Z,99775.56
2022-12-31T13:58:11.337Z,99780.41
2022-12-31T14:00:58.516Z,99787.19
2022-12-31T14:03:33.323Z,99795.75
2022-12-31T14:06:34.136Z,99800.47
2022-12-31T14:09:02.238Z,99796.69
2022-12-31T14:12:15.944Z,99800.22
2022-12-31T14:15:01.496Z,99798.34
2022-12-31T14:17:50.484Z,99806.34
2022-12-31T14:20:53.047Z,99805.00
2022-12-31T14:23:50.403Z,99802.63
2022-12-31T14:26:37.548Z,99806.91
2022-12-31T14:29:11.054Z,99813.25
2022-12-31T14:31:53.547Z,99805.44
2022-12-31T14:34:57.272Z,99804.56
2022-12-31T14:37:52.117Z,99810.78
2022-12-31T14:40:32.764Z,99806.75
2022-12-31T14:43:35.409Z,99807.69
2022-12-31T14:46:43.304Z,99804.03
2022-12-31T14:49:35.359Z,99802.94
2022-12-31T14:52:28.631Z,99803.72
2022-12-31T14:55:17.049Z,99804.22
2022-12-31T14:58:25.813Z,99805.28
2022-12-31T15:00:53.843Z,99819.63
2022-12-31T15:03:33.475Z,99820.47
2022-12-31T15:06:28.648Z,99828.09
2022-12-31T15:09:30.836Z,99825.66
2022-12-31T15:12:24.126Z,99836.97
2022-12-31T15:15:17.502Z,99848.66
2022-12-31T15:17:56.524Z,99853.97
2022-12-31T15:20:54.818Z,99856.13
2022-12-31T15:23:38.122Z,99870.22
2022-12-31T15:26:08.431Z,99869.56
2022-12-31T15:28:40.043Z,99885.28
2022-12-31T15:31:18.086Z,99892.63
2022-12-31T15:34:06.627Z,99894.06
2022-12-31T15:36:38.959Z,99899.59
2022-12-31T15:39:11.156Z,99902.66
2022-12-31T15:42:35.562Z,99903.44
2022-12-31T15:44:55.006Z,99910.28
2022-12-31T15:47:36.952Z,99908.47
2022-12-31T15:50:13.208Z,99911.75
2022-12-31T15:52:48.001Z,99899.97
2022-12-31T15:55:41.577Z,99905.75
2022-12-31T15:58:17.855Z,99908.84
2022-12-31T16:01:06.791Z,99898.94
2022-12-31T16:03:34.607Z,99905.00
2022-12-31T16:06:10.685Z,99893.88
2022-12-31T16:08:40.481Z,99897.19
2022-12-31T16:11:09.866Z,99899.22
2022-12-31T16:13:42.286Z,99898.41
2022-12-31T16:16:26.171Z,99904.13
2022-12-31T16:18:54.457Z,99903.88
2022-12-31T16:21:35.402Z,99906.63
2022-12-31T16:24:31.485Z,99908.28
2022-12-31T16:27:07.170Z,99910.13
2022-12-31T16:29:41.507Z,99908.81
2022-12-31T16:32:15.568Z,99914.25
2022-12-31T16:34:43.391Z,99919.69
2022-12-31T16:37:28.649Z,99921.91
2022-12-31T16:39:56.051Z,99916.19
2022-12-31T16:42:25.281Z,99922.50
2022-12-31T16:44:56.072Z,99921.84
2022-12-31T16:47:40.067Z,99925.56
2022-12-31T16:50:21.400Z,99926.69
2022-12-31T16:53:03.034Z,99937.63
2022-12-31T16:55:32.619Z,99931.88
2022-12-31T16:58:28.436Z,99928.13
2022-12-31T17:01:12.971Z,99925.25
2022-12-31T17:03:46.759Z,99927.47
2022-12-31T17:06:20.324Z,99924.69
2022-12-31T17:09:04.710Z,99925.09
2022-12-31T17:11:43.324Z,99925.69
2022-12-31T17:14:10.748Z,99926.38
2022-12-31T17:17:07.500Z,99924.75
2022-12-31T17:19:47.259Z,99924.28
2022-12-31T17:22:37.477Z,99921.81
2022-12-31T17:25:25.344Z,99922.47
2022-12-31T17:28:24.735Z,99912.19
2022-12-31T17:30:52.925Z,99910.81
2022-12-31T17:33:20.263Z,99908.94
2022-12-31T17:35:49.407Z,99906.34
2022-12-31T17:38:22.743Z,99902.25
2022-12-31T17:41:06.728Z,99906.66
2022-12-31T17:43:37.119Z,99892.81
2022-12-31T17:46:17.067Z,99912.44
2022-12-31T17:48:51.501Z,99898.84
2022-12-31T17:51:19.090Z,99896.31
2022-12-31T17:53:52.174Z,99896.22
2022-12-31T17:56:20.676Z,99901.97
2022-12-31T17:58:51.377Z,99901.97
2022-12-31T18:01:23.227Z,99901.97
2022-12-31T18:03:51.573Z,99908.28
2022-12-31T18:06:19.609Z,99906.50
2022-12-31T18:08:47.959Z,99909.22
2022-12-31T18:11:22.890Z,99907.31
2022-12-31T18:13:50.799Z,99911.47
2022-12-31T18:16:18.283Z,99905.13
2022-12-31T18:18:45.802Z,99906.25
2022-12-31T18:21:34.938Z,99906.09
2022-12-31T18:26:34.777Z,99920.78
2022-12-31T18:29:16.748Z,99920.53
2022-12-31T18:31:49.635Z,99934.50
2022-12-31T18:34:18.592Z,99922.00
2022-12-31T18:36:46.570Z,99920.38
2022-12-31T18:39:14.230Z,99917.59
2022-12-31T18:41:49.462Z,99926.00
2022-12-31T18:44:18.105Z,99920.88
2022-12-31T18:46:45.524Z,99927.31
2022-12-31T18:49:12.911Z,99916.88
2022-12-31T18:51:40.401Z,99922.50
2022-12-31T18:54:12.098Z,99928.44
2022-12-31T18:56:44.838Z,99927.47
2022-12-31T18:59:14.632Z,99934.16
2022-12-31T19:01:42.160Z,99930.06
2022-12-31T19:04:27.620Z,99939.13
2022-12-31T19:06:56.081Z,99934.88
2022-12-31T19:12:15.271Z,99947.00
2022-12-31T19:14:42.999Z,99941.66
2022-12-31T19:19:36.710Z,99936.59
2022-12-31T19:22:04.147Z,99941.41
2022-12-31T19:24:32.177Z,99948.00
2022-12-31T19:27:01.697Z,99953.78
2022-12-31T19:29:29.187Z,99952.00
2022-12-31T19:31:58.132Z,99952.28
2022-12-31T19:34:25.664Z,99967.53
2022-12-31T19:36:53.086Z,99946.78
2022-12-31T19:39:21.444Z,99957.19
2022-12-31T19:41:56.401Z,99955.13
2022-12-31T19:44:26.983Z,99954.59
2022-12-31T19:46:54.621Z,99956.22
2022-12-31T19:49:22.113Z,99956.22
2022-12-31T19:51:49.533Z,99958.28
2022-12-31T19:54:16.900Z,99960.47
2022-12-31T19:56:44.355Z,99958.97
2022-12-31T19:59:11.875Z,99962.78
2022-12-31T20:01:39.534Z,99957.88
2022-12-31T20:04:07.135Z,99963.06
2022-12-31T20:06:34.669Z,99954.56
2022-12-31T20:09:03.240Z,99942.78
2022-12-31T20:11:30.722Z,99950.69
2022-12-31T20:13:58.295Z,99952.78
2022-12-31T20:16:26.995Z,99947.41
2022-12-31T20:18:54.790Z,99949.19
2022-12-31T20:21:26.135Z,99953.16
2022-12-31T20:23:55.366Z,99947.50
2022-12-31T20:26:24.838Z,99956.72
2022-12-31T20:28:52.978Z,99953.16
2022-12-31T20:31:25.263Z,99946.16
2022-12-31T20:33:54.543Z,99947.41
2022-12-31T20:36:23.650Z,99943.28
2022-12-31T20:38:51.848Z,99951.00
2022-12-31T20:41:22.724Z,99955.81
2022-12-31T20:43:50.559Z,99950.69
2022-12-31T20:46:22.762Z,99953.19
2022-12-31T20:48:53.953Z,99948.25
2022-12-31T20:51:23.156Z,99944.66
2022-12-31T20:53:57.488Z,99942.78
2022-12-31T20:56:29.331Z,99945.63
2022-12-31T20:58:57.658Z,99944.00
2022-12-31T21:01:26.252Z,99953.47
2022-12-31T21:04:06.931Z,99958.94
2022-12-31T21:06:36.009Z,99947.16
2022-12-31T21:09:06.618Z,99953.50
2022-12-31T21:11:53.496Z,99947.41
2022-12-31T21:14:21.180Z,99939.50
2022-12-31T21:16:48.544Z,99941.53
2022-12-31T21:19:16.039Z,99943.75
2022-12-31T21:21:43.526Z,99946.19
2022-12-31T21:24:11.085Z,99942.75
2022-12-31T21:26:38.412Z,99954.84
2022-12-31T21:29:05.811Z,99954.28
2022-12-31T21:31:33.333Z,99952.34
2022-12-31T21:34:00.736Z,99956.06
2022-12-31T21:36:28.207Z,99957.28
2022-12-31T21:38:55.643Z,99962.63
2022-12-31T21:41:41.468Z,99951.09
2022-12-31T21:44:08.935Z,99950.28
2022-12-31T21:46:36.384Z,99954.25
2022-12-31T21:49:04.225Z,99962.50
2022-12-31T21:51:31.676Z,99953.44
2022-12-31T21:53:59.027Z,99957.94
2022-12-31T21:56:26.424Z,99958.22
2022-12-31T21:59:29.966Z,99966.03
2022-12-31T22:02:33.002Z,99973.00
2022-12-31T22:05:02.344Z,99980.91
2022-12-31T22:07:30.621Z,99984.06
2022-12-31T22:09:58.031Z,99985.31
2022-12-31T22:12:25.524Z,99987.09
2022-12-31T22:15:13.908Z,99981.94
2022-12-31T22:17:40.455Z,99983.03
2022-12-31T22:20:26.260Z,99990.31
2022-12-31T22:22:55.663Z,99991.38
2022-12-31T22:25:23.046Z,99990.13
2022-12-31T22:28:27.646Z,99992.72
2022-12-31T22:30:38.003Z,99994.47
2022-12-31T22:33:05.396Z,99990.94
2022-12-31T22:35:32.792Z,99993.94
2022-12-31T22:38:06.526Z,99994.56
2022-12-31T22:40:37.406Z,99994.03
2022-12-31T22:43:04.756Z,99996.34
2022-12-31T22:45:32.100Z,100000.28
2022-12-31T22:47:59.446Z,99989.44
2022-12-31T22:50:26.821Z,99997.50
2022-12-31T22:52:54.207Z,99993.81
2022-12-31T22:55:21.611Z,99996.44
2022-12-31T22:57:49.016Z,100000.16
2022-12-31T23:00:16.515Z,100001.13
2022-12-31T23:02:44.011Z,99994.41
2022-12-31T23:05:16.241Z,99993.59
2022-12-31T23:07:44.006Z,99983.19
2022-12-31T23:10:30.172Z,99989.59
2022-12-31T23:12:59.057Z,99986.94
2022-12-31T23:15:45.186Z,99990.88
2022-12-31T23:18:31.420Z,99982.63
2022-12-31T23:21:17.382Z,99989.91
2022-12-31T23:23:44.750Z,99992.75
2022-12-31T23:26:12.173Z,99994.81
2022-12-31T23:28:41.865Z,99991.25
2022-12-31T23:31:09.370Z,99988.38
2022-12-31T23:33:36.779Z,99983.28
2022-12-31T23:36:07.061Z,99997.41
2022-12-31T23:38:34.596Z,99989.03
2022-12-31T23:41:15.987Z,99992.06
2022-12-31T23:43:44.241Z,99984.84
2022-12-31T23:46:12.584Z,99985.53
2022-12-31T23:48:40.257Z,99989.00
2022-12-31T23:51:07.652Z,99983.13
2022-12-31T23:53:38.443Z,99990.56
2022-12-31T23:56:23.277Z,99985.78
2022-12-31T23:58:58.639Z,99982.78
